Time;durP1;ratioP1;P1;durP2;ratioP2;P2;SDS_P1;SDS_P2;PMS_P1;PMS_P2;Temp;Humidity;BMP_temperature;BMP_pressure;BME280_temperature;BME280_humidity;BME280_pressure;Samples;Min_cycle;Max_cycle;Signal;HPM_P1;HPM_P2
2022/05/13 00:00:33;;;;;;;9.38;5.70;;;;;;;17.95;57.58;100124.41;5117761;28;20031;-71
2022/05/13 00:02:58;;;;;;;9.27;5.32;;;;;;;17.86;57.51;100137.16;5118332;28;20221;-71
2022/05/13 00:05:24;;;;;;;11.55;6.03;;;;;;;17.86;57.67;100129.13;5116838;28;20036;-71
2022/05/13 00:07:50;;;;;;;13.27;6.03;;;;;;;17.73;57.95;100129.88;5117036;28;20248;-71
2022/05/13 00:10:16;;;;;;;15.35;6.05;;;;;;;17.75;57.95;100127.84;5098867;28;20378;-71
2022/05/13 00:12:41;;;;;;;16.23;7.03;;;;;;;17.71;58.31;100117.72;5116778;28;20441;-71
2022/05/13 00:15:14;;;;;;;12.65;6.18;;;;;;;17.90;57.70;100122.34;5118005;28;20080;-71
2022/05/13 00:17:40;;;;;;;11.18;6.43;;;;;;;17.87;58.12;100130.78;5118398;28;20133;-71
2022/05/13 00:20:07;;;;;;;13.27;6.75;;;;;;;17.95;57.78;100113.69;5118928;28;20032;-71
2022/05/13 00:22:33;;;;;;;9.70;6.00;;;;;;;18.05;57.45;100127.53;5117989;28;20081;-71
2022/05/13 00:24:59;;;;;;;11.10;6.18;;;;;;;18.02;57.87;100120.72;5116632;28;20039;-71
2022/05/13 00:27:24;;;;;;;9.27;6.10;;;;;;;17.97;58.05;100114.31;5116186;28;20035;-71
2022/05/13 00:29:50;;;;;;;12.13;6.40;;;;;;;17.97;58.25;100111.63;5117574;28;20035;-71
2022/05/13 00:32:16;;;;;;;12.38;6.75;;;;;;;17.89;58.40;100109.97;5119861;28;20023;-71
2022/05/13 00:34:43;;;;;;;13.20;6.68;;;;;;;17.85;58.97;100116.75;5121967;28;20027;-71
2022/05/13 00:37:08;;;;;;;12.40;7.00;;;;;;;17.84;59.44;100105.22;5102821;28;20051;-71
2022/05/13 00:39:34;;;;;;;10.60;6.22;;;;;;;17.85;59.84;100108.72;5120491;28;20226;-71
2022/05/13 00:42:07;;;;;;;8.93;6.00;;;;;;;17.82;59.73;100120.66;5122093;28;20062;-71
2022/05/13 00:44:32;;;;;;;10.60;6.50;;;;;;;17.82;59.68;100123.34;5120399;28;20032;-71
2022/05/13 00:46:58;;;;;;;15.70;7.20;;;;;;;17.80;59.33;100128.06;5120079;28;20027;-71
2022/05/13 00:49:23;;;;;;;10.75;7.00;;;;;;;17.79;59.34;100136.31;5121615;28;20104;-71
2022/05/13 00:51:49;;;;;;;13.60;7.43;;;;;;;17.69;59.46;100136.66;5119854;27;20448;-71
2022/05/13 00:54:16;;;;;;;12.75;7.75;;;;;;;17.80;59.01;100138.78;5119990;28;20093;-71
2022/05/13 00:56:44;;;;;;;12.77;7.55;;;;;;;17.61;59.34;100106.47;5121369;28;20035;-71
2022/05/13 00:59:14;;;;;;;13.05;7.78;;;;;;;17.87;58.76;100141.50;5119889;27;20329;-71
2022/05/13 01:01:39;;;;;;;11.20;7.50;;;;;;;17.90;58.38;100133.03;5120312;28;20028;-71
2022/05/13 01:04:09;;;;;;;14.63;7.43;;;;;;;17.77;59.18;100133.81;5121299;28;20037;-71
2022/05/13 01:06:36;;;;;;;16.05;7.95;;;;;;;17.73;59.68;100131.75;5119338;28;20069;-71
2022/05/13 01:09:03;;;;;;;12.90;8.25;;;;;;;17.56;59.21;100096.38;5119837;27;20027;-71
2022/05/13 01:11:33;;;;;;;14.15;7.93;;;;;;;17.60;59.69;100128.94;5120120;28;20362;-71
2022/05/13 01:14:06;;;;;;;13.52;7.25;;;;;;;17.49;60.37;100127.63;5120726;28;20027;-71
2022/05/13 01:18:05;;;;;;;8.82;5.68;;;;;;;17.13;59.71;100117.94;5119661;28;20027;-71
2022/05/13 01:19:18;;;;;;;11.07;5.15;;;;;;;16.77;61.36;100122.59;5118660;28;20106;-71
2022/05/13 01:21:45;;;;;;;11.23;5.30;;;;;;;16.60;61.94;100132.69;5119589;28;20031;-71
2022/05/13 01:24:10;;;;;;;9.55;4.95;;;;;;;16.60;62.25;100136.19;5121001;28;20023;-71
2022/05/13 01:26:36;;;;;;;8.07;5.35;;;;;;;16.31;62.19;100130.97;5119196;27;20034;-71
2022/05/13 01:29:02;;;;;;;7.38;4.82;;;;;;;16.33;62.24;100134.25;5117520;28;20026;-71
2022/05/13 01:31:31;;;;;;;10.52;5.40;;;;;;;16.42;62.60;100135.78;5118381;28;20404;-71
2022/05/13 01:33:58;;;;;;;8.50;5.40;;;;;;;16.38;62.51;100126.50;5119319;28;20023;-71
2022/05/13 01:36:24;;;;;;;9.52;4.90;;;;;;;16.40;62.37;100121.78;5097770;28;20023;-71
2022/05/13 01:38:50;;;;;;;9.63;5.28;;;;;;;16.45;62.22;100124.72;5120203;28;20321;-71
2022/05/13 01:41:16;;;;;;;8.10;5.15;;;;;;;16.50;62.14;100127.66;5119094;28;20035;-71
2022/05/13 01:43:44;;;;;;;9.30;5.15;;;;;;;16.43;62.34;100121.41;5120211;28;20059;-71
2022/05/13 01:46:10;;;;;;;8.05;5.15;;;;;;;16.49;62.18;100119.81;5119078;28;20059;-71
2022/05/13 01:48:36;;;;;;;8.85;5.57;;;;;;;16.34;63.19;100119.06;5118888;28;20031;-71
2022/05/13 01:51:02;;;;;;;8.20;4.68;;;;;;;16.30;63.26;100121.28;5120087;28;20225;-71
2022/05/13 01:53:28;;;;;;;9.65;5.18;;;;;;;16.29;62.52;100120.47;5118136;28;20030;-71
2022/05/13 01:55:54;;;;;;;11.05;6.07;;;;;;;16.33;62.69;100118.22;5119251;28;20051;-71
2022/05/13 01:58:22;;;;;;;7.60;5.63;;;;;;;16.26;63.44;100122.69;5119967;28;20070;-71
2022/05/13 02:00:49;;;;;;;7.60;5.30;;;;;;;16.14;63.74;100121.53;5118761;28;20044;-71
2022/05/13 02:06:00;;;;;;;8.98;5.05;;;;;;;15.86;64.16;100113.41;5118535;28;20045;-71
2022/05/13 02:08:25;;;;;;;9.20;5.25;;;;;;;15.98;64.79;100117.25;5118475;28;20348;-71
2022/05/13 02:10:51;;;;;;;7.30;5.68;;;;;;;16.01;64.87;100118.69;5119756;28;20057;-71
2022/05/13 02:13:17;;;;;;;8.82;5.60;;;;;;;16.15;64.82;100125.84;5119246;28;20058;-71
2022/05/13 02:15:42;;;;;;;8.90;5.13;;;;;;;16.26;64.20;100133.38;5119143;28;20036;-71
2022/05/13 02:18:09;;;;;;;10.15;5.68;;;;;;;16.32;64.17;100126.44;5119950;28;20027;-71
2022/05/13 02:20:36;;;;;;;10.98;6.05;;;;;;;16.32;64.05;100124.59;5118453;28;20988;-71
2022/05/13 02:23:02;;;;;;;10.52;5.78;;;;;;;16.40;63.43;100129.81;5118863;28;20098;-71
2022/05/13 02:25:29;;;;;;;7.63;4.95;;;;;;;16.37;63.48;100132.88;5119348;28;20368;-71
2022/05/13 02:27:59;;;;;;;8.20;5.45;;;;;;;16.39;63.95;100128.16;5117881;28;20030;-71
2022/05/13 02:30:25;;;;;;;11.98;5.53;;;;;;;16.43;63.88;100125.94;5118198;28;20284;-71
2022/05/13 02:32:51;;;;;;;9.65;5.88;;;;;;;16.43;63.92;100120.59;5119601;28;20036;-71
2022/05/13 02:35:16;;;;;;;9.63;5.75;;;;;;;16.44;63.84;100132.94;5118572;28;20035;-71
2022/05/13 02:37:42;;;;;;;10.20;5.28;;;;;;;16.33;64.05;100130.75;5119628;28;20032;-70
2022/05/13 02:40:08;;;;;;;12.48;5.78;;;;;;;16.36;64.35;100125.03;5120356;28;20112;-71
2022/05/13 02:42:33;;;;;;;12.48;5.88;;;;;;;16.33;64.19;100130.75;5122348;28;20229;-71
2022/05/13 02:45:00;;;;;;;8.95;6.10;;;;;;;16.44;63.41;100127.59;5120885;28;20035;-71
2022/05/13 02:47:25;;;;;;;9.50;5.88;;;;;;;16.42;62.94;100121.59;5122881;28;20072;-71
2022/05/13 02:50:17;;;;;;;12.88;5.60;;;;;;;16.34;63.17;100122.56;5121046;28;20314;-71
2022/05/13 02:52:36;;;;;;;9.07;5.25;;;;;;;16.29;63.31;100124.97;5118283;28;20059;-71
2022/05/13 02:55:02;;;;;;;11.25;6.35;;;;;;;16.30;63.53;100131.97;5117349;28;20028;-71
2022/05/13 02:57:28;;;;;;;11.77;5.68;;;;;;;16.27;63.23;100135.84;5117841;28;20349;-71
2022/05/13 02:59:54;;;;;;;17.20;7.18;;;;;;;16.21;64.24;100117.91;5118496;28;20059;-71
2022/05/13 03:02:19;;;;;;;13.35;6.57;;;;;;;16.27;64.80;100127.84;5117732;28;20077;-71
2022/05/13 03:04:44;;;;;;;14.85;6.90;;;;;;;16.25;64.28;100134.38;5119218;28;20232;-71
2022/05/13 03:07:10;;;;;;;9.65;5.68;;;;;;;16.28;63.59;100134.84;5118561;28;20329;-71
2022/05/13 03:09:35;;;;;;;13.57;5.97;;;;;;;16.27;64.00;100140.38;5121504;28;20099;-71
2022/05/13 03:12:01;;;;;;;17.08;6.95;;;;;;;16.22;64.75;100146.28;5118956;28;20062;-71
2022/05/13 03:14:26;;;;;;;17.75;7.50;;;;;;;16.33;64.52;100142.28;5118736;28;20046;-71
2022/05/13 03:16:51;;;;;;;15.27;6.80;;;;;;;16.26;65.81;100142.22;5117143;28;20037;-71
2022/05/13 03:19:17;;;;;;;22.95;8.07;;;;;;;16.37;65.04;100143.56;5118771;28;20031;-71
2022/05/13 03:21:42;;;;;;;28.08;8.48;;;;;;;16.32;65.31;100135.28;5116989;28;20035;-71
2022/05/13 03:24:08;;;;;;;20.73;7.97;;;;;;;16.15;66.44;100148.06;5117364;28;20034;-71
2022/05/13 03:26:33;;;;;;;18.92;7.43;;;;;;;16.26;66.19;100155.56;5118431;28;20039;-71
2022/05/13 03:28:59;;;;;;;34.78;7.32;;;;;;;16.22;66.07;100153.47;5117287;28;20035;-71
2022/05/13 03:31:24;;;;;;;20.20;7.60;;;;;;;16.05;66.95;100157.38;5118485;28;20268;-71
2022/05/13 03:33:50;;;;;;;19.13;7.40;;;;;;;16.18;66.43;100158.34;5117433;28;20233;-71
2022/05/13 03:36:15;;;;;;;16.92;7.05;;;;;;;15.94;67.44;100148.84;5121195;28;20325;-71
2022/05/13 03:38:42;;;;;;;15.45;6.88;;;;;;;16.27;66.49;100164.41;5121309;28;20027;-71
2022/05/13 03:41:08;;;;;;;13.20;7.00;;;;;;;16.30;66.25;100153.34;5118293;28;20263;-71
2022/05/13 03:43:33;;;;;;;13.73;6.60;;;;;;;16.31;66.42;100172.88;5116838;28;20199;-71
2022/05/13 03:45:59;;;;;;;21.52;6.55;;;;;;;16.43;65.79;100164.19;5118357;28;20090;-71
2022/05/13 03:48:24;;;;;;;11.82;6.38;;;;;;;16.47;65.71;100157.44;5117032;28;20076;-71
2022/05/13 03:50:49;;;;;;;8.07;5.88;;;;;;;16.72;65.21;100159.78;5117206;28;20090;-71
2022/05/13 03:53:15;;;;;;;17.05;7.20;;;;;;;16.92;64.19;100174.16;5118707;28;20267;-71
2022/05/13 03:55:41;;;;;;;12.95;6.32;;;;;;;16.96;64.33;100163.91;5116870;28;20038;-71
2022/05/13 03:58:07;;;;;;;10.85;6.45;;;;;;;17.02;64.95;100173.84;5103127;28;20242;-71
2022/05/13 04:00:33;;;;;;;21.75;7.35;;;;;;;16.79;65.57;100172.22;5120043;28;20217;-71
2022/05/13 04:02:58;;;;;;;15.63;6.72;;;;;;;16.48;66.49;100137.72;5117093;28;20024;-71
2022/05/13 04:10:52;;;;;;;25.50;7.38;;;;;;;17.12;64.54;100187.72;5124040;28;20069;-71
2022/05/13 04:16:06;;;;;;;17.95;6.45;;;;;;;17.35;63.47;100188.31;5121762;28;20061;-71
2022/05/13 04:18:45;;;;;;;23.77;8.30;;;;;;;17.51;62.39;100197.88;5121365;28;20066;-71
2022/05/13 04:21:18;;;;;;;18.67;8.52;;;;;;;17.29;62.60;100194.44;5121074;28;20055;-71
2022/05/13 04:23:45;;;;;;;19.98;8.13;;;;;;;17.43;62.17;100195.34;5102312;28;20085;-71
2022/05/13 04:26:12;;;;;;;22.67;7.75;;;;;;;17.55;61.87;100194.63;5122017;28;20053;-71
2022/05/13 04:28:39;;;;;;;19.38;7.80;;;;;;;17.67;61.79;100186.06;5121674;28;20142;-71
2022/05/13 04:31:04;;;;;;;16.38;7.80;;;;;;;17.89;61.49;100193.00;5101901;28;20043;-72
2022/05/13 04:33:30;;;;;;;20.08;7.95;;;;;;;18.21;59.92;100194.19;5124987;28;20035;-71
2022/05/13 04:35:55;;;;;;;22.35;7.35;;;;;;;18.55;59.05;100193.25;5124825;28;20038;-71
2022/05/13 04:38:21;;;;;;;21.73;7.65;;;;;;;18.93;58.12;100193.56;5122030;28;20083;-71
2022/05/13 04:40:47;;;;;;;18.83;7.40;;;;;;;19.39;56.43;100192.75;5124706;28;20050;-71
2022/05/13 04:43:12;;;;;;;13.50;6.82;;;;;;;19.74;55.09;100196.00;5121572;28;20031;-71
2022/05/13 04:45:37;;;;;;;22.52;6.68;;;;;;;19.87;54.79;100198.69;5123686;28;20042;-71
2022/05/13 04:48:22;;;;;;;27.88;7.78;;;;;;;20.21;54.02;100202.91;5124723;28;20028;-71
2022/05/13 04:50:56;;;;;;;;;;;;;;;20.27;53.25;100204.75;5122044;28;20293;-72
2022/05/13 04:53:25;;;;;;;16.83;6.70;;;;;;;20.30;53.42;100201.63;5120558;28;21417;-72
2022/05/13 04:55:52;;;;;;;16.33;7.05;;;;;;;20.68;51.63;100208.91;5120706;28;20040;-71
2022/05/13 04:58:18;;;;;;;17.42;7.07;;;;;;;20.82;52.06;100199.72;5120199;28;20031;-71
2022/05/13 05:00:47;;;;;;;23.58;7.20;;;;;;;21.17;50.98;100196.56;5119456;28;20327;-72
2022/05/13 05:03:13;;;;;;;18.23;6.68;;;;;;;20.81;51.64;100205.31;5122243;28;20015;-71
2022/05/13 05:05:38;;;;;;;12.85;7.13;;;;;;;21.16;51.34;100203.00;5124341;28;20038;-71
2022/05/13 05:08:04;;;;;;;16.65;6.97;;;;;;;21.61;49.60;100204.47;5122140;28;20065;-72
2022/05/13 05:10:30;;;;;;;18.55;7.38;;;;;;;21.88;48.18;100202.34;5119871;28;20032;-72
2022/05/13 05:12:57;;;;;;;14.32;7.50;;;;;;;21.98;47.61;100208.03;5120633;28;20101;-71
2022/05/13 05:15:23;;;;;;;19.77;7.05;;;;;;;22.24;47.07;100200.69;5121254;28;20054;-72
2022/05/13 05:17:49;;;;;;;16.50;6.85;;;;;;;22.47;46.78;100206.19;5118665;28;20077;-72
2022/05/13 05:20:15;;;;;;;17.60;6.75;;;;;;;22.57;46.74;100202.94;5121266;28;20244;-72
2022/05/13 05:22:44;;;;;;;16.02;7.00;;;;;;;22.89;45.37;100198.16;5119667;28;20108;-72
2022/05/13 05:25:10;;;;;;;14.73;6.47;;;;;;;22.91;45.50;100218.50;5119661;28;20040;-72
2022/05/13 05:27:36;;;;;;;15.20;6.35;;;;;;;22.97;45.57;100213.22;5121027;28;20158;-72
2022/05/13 05:30:04;;;;;;;15.80;5.60;;;;;;;23.35;44.93;100212.78;5120316;28;20377;-72
2022/05/13 05:32:30;;;;;;;13.52;6.80;;;;;;;23.80;43.49;100211.16;5104325;28;20607;-72
2022/05/13 05:34:55;;;;;;;25.92;7.22;;;;;;;23.81;43.43;100212.00;5119417;28;20247;-72
2022/05/13 05:37:21;;;;;;;16.35;6.38;;;;;;;24.06;43.17;100217.16;5121107;28;20225;-72
2022/05/13 05:39:46;;;;;;;12.93;6.00;;;;;;;24.25;42.07;100215.09;5118551;28;20028;-72
2022/05/13 05:42:12;;;;;;;13.02;5.95;;;;;;;24.58;40.61;100217.94;5123973;28;20028;-71
2022/05/13 05:44:37;;;;;;;15.38;6.22;;;;;;;25.07;40.10;100215.59;5123415;28;20077;-72
2022/05/13 05:47:04;;;;;;;19.10;5.88;;;;;;;25.40;39.81;100212.91;5118276;28;20026;-72
2022/05/13 05:49:29;;;;;;;31.33;6.30;;;;;;;25.56;39.05;100203.09;5119354;28;20027;-73
2022/05/13 05:51:56;;;;;;;13.95;6.07;;;;;;;25.49;39.11;100202.44;5120240;28;20035;-72
2022/05/13 05:57:15;;;;;;;18.52;5.00;;;;;;;26.22;36.97;100195.06;5117954;28;20038;-72
2022/05/13 05:59:45;;;;;;;10.00;4.35;;;;;;;26.35;36.49;100208.25;5118366;27;20043;-72
2022/05/13 06:02:12;;;;;;;17.75;5.80;;;;;;;26.66;36.56;100201.25;5117846;28;20015;-72
2022/05/13 06:04:38;;;;;;;17.33;5.07;;;;;;;26.58;36.64;100205.25;5118575;28;20048;-72
2022/05/13 06:07:10;;;;;;;19.38;5.35;;;;;;;26.43;37.09;100198.84;5117643;28;20020;-72
2022/05/13 06:09:36;;;;;;;9.95;4.63;;;;;;;26.81;35.99;100200.59;5117569;28;20039;-72
2022/05/13 06:12:03;;;;;;;11.18;4.68;;;;;;;27.10;35.17;100190.28;5117965;28;20016;-72
2022/05/13 06:14:29;;;;;;;12.35;4.20;;;;;;;27.29;34.51;100191.53;5117949;27;20300;-72
2022/05/13 06:16:54;;;;;;;10.00;3.83;;;;;;;27.44;34.17;100196.25;5117834;28;20031;-72
2022/05/13 06:19:20;;;;;;;12.43;4.05;;;;;;;27.77;33.11;100193.22;5119120;28;20116;-72
2022/05/13 06:21:45;;;;;;;11.25;4.35;;;;;;;28.17;33.33;100187.16;5117335;28;20042;-72
2022/05/13 06:24:12;;;;;;;10.90;4.05;;;;;;;28.23;31.47;100188.84;5117736;28;20019;-72
2022/05/13 06:26:37;;;;;;;7.45;3.83;;;;;;;28.03;31.83;100194.16;5117940;28;20118;-72
2022/05/13 06:29:04;;;;;;;13.05;4.18;;;;;;;28.03;32.17;100196.06;5116272;28;20327;-71
2022/05/13 06:31:30;;;;;;;11.30;4.72;;;;;;;27.69;32.46;100185.56;5117655;28;20311;-72
2022/05/13 06:33:55;;;;;;;11.23;3.60;;;;;;;28.10;32.04;100188.50;5118829;28;20034;-72
2022/05/13 06:36:21;;;;;;;8.85;3.25;;;;;;;28.34;31.98;100180.69;5117351;28;20382;-72
2022/05/13 06:38:47;;;;;;;10.55;3.80;;;;;;;28.03;31.75;100190.59;5117280;28;20255;-72
2022/05/13 06:41:13;;;;;;;8.98;3.50;;;;;;;28.06;31.96;100182.72;5117568;28;20035;-73
2022/05/13 06:43:38;;;;;;;11.20;3.67;;;;;;;27.19;32.46;100173.25;5117253;28;20038;-73
2022/05/13 06:46:04;;;;;;;11.32;3.95;;;;;;;27.56;32.64;100175.09;5117571;28;20034;-72
2022/05/13 06:48:29;;;;;;;8.75;3.60;;;;;;;28.07;31.58;100172.66;5118539;28;20045;-72
2022/05/13 06:50:55;;;;;;;8.07;3.45;;;;;;;28.48;31.22;100174.47;5116541;28;20030;-73
2022/05/13 06:53:22;;;;;;;8.55;3.15;;;;;;;28.99;30.26;100171.00;5118522;28;20047;-73
2022/05/13 06:55:49;;;;;;;9.32;3.55;;;;;;;28.50;30.25;100163.28;5118105;28;20031;-72
2022/05/13 06:58:16;;;;;;;6.28;3.42;;;;;;;28.88;29.85;100167.44;5116798;28;20023;-72
2022/05/13 07:00:43;;;;;;;6.93;3.83;;;;;;;29.06;30.18;100166.06;5098522;28;20066;-72
2022/05/13 07:03:17;;;;;;;4.97;3.50;;;;;;;29.15;29.98;100170.75;5099492;28;20071;-72
2022/05/13 07:05:43;;;;;;;7.88;3.60;;;;;;;29.26;29.72;100154.38;5116806;28;20133;-72
2022/05/13 07:08:09;;;;;;;15.23;4.18;;;;;;;28.96;29.73;100153.28;5121437;27;20058;-72
2022/05/13 07:10:35;;;;;;;9.32;3.28;;;;;;;29.20;29.49;100165.28;5116804;27;20043;-72
2022/05/13 07:13:06;;;;;;;10.38;3.67;;;;;;;29.07;29.77;100156.81;5098705;27;20024;-72
2022/05/13 07:15:32;;;;;;;6.80;3.90;;;;;;;29.08;30.14;100153.00;5115947;27;20031;-72
2022/05/13 07:17:58;;;;;;;9.40;3.90;;;;;;;29.34;29.26;100151.06;5117836;28;20020;-72
2022/05/13 07:20:26;;;;;;;10.63;3.53;;;;;;;29.20;29.90;100151.66;5116670;28;20711;-72
2022/05/13 07:22:52;;;;;;;9.82;4.32;;;;;;;28.84;30.94;100152.72;5116596;28;20061;-72
2022/05/13 07:25:18;;;;;;;7.60;3.80;;;;;;;29.22;29.94;100152.19;5117835;28;20031;-72
2022/05/13 07:27:44;;;;;;;7.00;3.40;;;;;;;29.87;29.00;100142.19;5116478;28;20141;-72
2022/05/13 07:30:10;;;;;;;6.93;4.03;;;;;;;30.07;29.35;100135.84;5117811;28;20054;-72
2022/05/13 07:32:35;;;;;;;11.20;5.03;;;;;;;30.29;29.56;100145.59;5116585;28;20426;-72
2022/05/13 07:35:01;;;;;;;8.07;3.72;;;;;;;30.65;28.70;100143.47;5117681;28;20035;-72
2022/05/13 07:37:27;;;;;;;21.85;5.43;;;;;;;30.73;28.40;100142.84;5120716;28;20031;-72
2022/05/13 07:42:36;;;;;;;9.68;3.97;;;;;;;30.47;27.70;100147.66;5117635;28;20133;-72
2022/05/13 07:45:03;;;;;;;6.38;3.47;;;;;;;30.98;26.99;100136.34;5116225;28;20259;-72
2022/05/13 07:47:28;;;;;;;5.60;4.38;;;;;;;31.15;26.77;100136.75;5116153;28;20051;-72
2022/05/13 07:49:53;;;;;;;9.73;3.95;;;;;;;31.33;26.83;100136.06;5099080;28;20077;-72
2022/05/13 07:52:19;;;;;;;7.03;3.58;;;;;;;31.31;26.90;100132.78;5115708;28;20332;-73
2022/05/13 07:54:44;;;;;;;10.88;3.88;;;;;;;31.46;25.94;100134.53;5115834;28;20222;-72
2022/05/13 07:57:10;;;;;;;9.20;4.22;;;;;;;31.46;25.13;100125.53;5117085;28;20035;-72
2022/05/13 08:00:24;;;;;;;7.22;3.17;;;;;;;31.88;24.48;100119.28;5115782;28;20055;-72
2022/05/13 08:02:21;;;;;;;11.15;4.22;;;;;;;31.70;24.47;100121.69;5115663;28;20103;-72
2022/05/13 08:04:47;;;;;;;7.50;3.95;;;;;;;32.15;23.95;100122.19;5116262;28;20031;-72
2022/05/13 08:07:12;;;;;;;9.40;3.50;;;;;;;31.89;23.91;100121.72;5116848;28;20028;-72
2022/05/13 08:09:37;;;;;;;6.20;3.58;;;;;;;31.65;25.26;100127.22;5115917;28;20413;-72
2022/05/13 08:12:04;;;;;;;9.35;3.30;;;;;;;30.89;25.49;100117.00;5115938;28;20016;-72
2022/05/13 08:14:29;;;;;;;10.10;4.20;;;;;;;31.57;25.02;100116.09;5117421;28;20085;-73
2022/05/13 08:16:55;;;;;;;10.07;3.47;;;;;;;32.13;25.55;100115.38;5115728;28;20023;-72
2022/05/13 08:19:20;;;;;;;7.20;4.07;;;;;;;31.56;25.02;100114.47;5116248;28;20093;-72
2022/05/13 08:21:46;;;;;;;8.55;3.65;;;;;;;31.40;25.37;100106.44;5117156;28;20057;-72
2022/05/13 08:24:11;;;;;;;8.18;3.92;;;;;;;30.74;26.41;100117.16;5097339;28;20019;-72
2022/05/13 08:26:37;;;;;;;7.93;3.22;;;;;;;30.23;27.45;100112.03;5116598;28;20036;-72
2022/05/13 08:29:02;;;;;;;8.20;3.75;;;;;;;29.97;27.99;100114.03;5115865;28;20023;-72
2022/05/13 08:31:28;;;;;;;8.63;3.97;;;;;;;30.12;28.45;100107.69;5116483;28;20032;-72
2022/05/13 08:33:53;;;;;;;8.32;3.88;;;;;;;30.01;27.84;100112.41;5115101;28;20044;-72
2022/05/13 08:36:19;;;;;;;8.07;4.22;;;;;;;30.32;27.42;100110.31;5115353;28;20313;-72
2022/05/13 08:38:45;;;;;;;11.50;3.83;;;;;;;30.42;27.94;100106.72;5116686;28;20085;-72
2022/05/13 08:41:19;;;;;;;6.88;3.75;;;;;;;30.60;27.98;100107.97;5115887;28;20233;-72
2022/05/13 08:43:53;;;;;;;5.35;3.75;;;;;;;30.39;28.35;100101.81;5115651;28;20212;-72
2022/05/13 08:46:34;;;;;;;9.27;4.53;;;;;;;30.46;27.64;100094.94;5114565;28;20035;-72
2022/05/13 08:49:25;;;;;;;8.27;3.83;;;;;;;30.34;28.07;100097.19;5114352;28;20275;-72
2022/05/13 08:55:07;;;;;;;13.85;4.20;;;;;;;31.08;27.13;100082.38;5118539;28;20035;-72
2022/05/13 08:57:39;;;;;;;9.68;3.95;;;;;;;31.28;26.39;100083.31;5120037;28;20306;-72
2022/05/13 09:00:10;;;;;;;9.38;4.43;;;;;;;31.58;26.39;100090.34;5120141;28;20032;-72
2022/05/13 09:02:41;;;;;;;9.70;4.18;;;;;;;31.83;25.93;100083.75;5119412;28;20040;-72
2022/05/13 09:05:29;;;;;;;5.75;3.70;;;;;;;30.17;28.21;100081.19;5118046;28;20039;-72
2022/05/13 09:07:56;;;;;;;14.48;4.05;;;;;;;29.22;30.09;100077.72;5117792;27;20035;-73
2022/05/13 09:10:22;;;;;;;10.60;4.25;;;;;;;29.77;29.07;100074.00;5120351;28;20035;-72
2022/05/13 09:13:12;;;;;;;5.57;4.00;;;;;;;29.94;28.81;100061.91;5118893;28;20084;-72
2022/05/13 09:15:48;;;;;;;5.75;3.97;;;;;;;29.39;29.37;100070.03;5119960;28;20353;-72
2022/05/13 09:18:35;;;;;;;7.03;3.92;;;;;;;29.12;29.59;100062.19;5120174;28;20104;-72
2022/05/13 09:21:05;;;;;;;15.63;4.90;;;;;;;29.02;31.54;100058.66;5120182;28;20043;-72
2022/05/13 09:23:31;;;;;;;6.47;4.20;;;;;;;29.18;30.43;100058.38;5101168;27;20019;-72
2022/05/13 09:26:14;;;;;;;7.13;3.95;;;;;;;28.96;30.15;100057.03;5120220;28;20080;-72
2022/05/13 09:29:05;;;;;;;7.30;3.88;;;;;;;29.08;29.87;100052.94;5119635;28;20059;-72
2022/05/13 09:31:33;;;;;;;7.03;4.15;;;;;;;29.11;30.54;100054.28;5117220;28;20068;-72
2022/05/13 09:33:59;;;;;;;6.60;3.50;;;;;;;29.36;29.56;100037.88;5120079;28;20341;-72
2022/05/13 09:36:26;;;;;;;8.30;3.92;;;;;;;29.71;30.31;100036.09;5100095;28;20036;-72
2022/05/13 09:39:01;;;;;;;12.90;3.85;;;;;;;29.47;31.20;100034.03;5118677;28;20031;-72
2022/05/13 09:41:34;;;;;;;5.20;3.42;;;;;;;28.86;30.91;100028.72;5118709;28;20027;-72
2022/05/13 09:44:10;;;;;;;5.18;3.45;;;;;;;28.72;31.47;100030.34;5119834;28;20035;-72
2022/05/13 09:46:38;;;;;;;5.13;3.60;;;;;;;28.76;31.65;100025.97;5119200;28;20031;-72
2022/05/13 09:49:12;;;;;;;6.15;3.58;;;;;;;28.71;31.46;100028.72;5118272;28;20063;-72
2022/05/13 09:51:54;;;;;;;8.32;3.60;;;;;;;28.71;30.90;100019.72;5117992;28;20088;-72
2022/05/13 09:54:31;;;;;;;6.82;3.58;;;;;;;28.71;31.17;100020.53;5117409;27;20093;-72
2022/05/13 09:57:28;;;;;;;13.73;4.28;;;;;;;28.79;32.65;100006.34;5118468;28;20085;-72
2022/05/13 10:00:02;;;;;;;5.03;3.72;;;;;;;28.81;33.05;100003.34;5118889;28;20071;-72
2022/05/13 10:02:37;;;;;;;6.55;3.70;;;;;;;28.39;31.35;100000.94;5100179;28;20040;-72
2022/05/13 10:05:26;;;;;;;7.75;3.90;;;;;;;27.98;34.07;100012.59;5117272;27;20446;-72
2022/05/13 10:08:16;;;;;;;7.68;4.25;;;;;;;27.46;33.93;99990.94;5119044;28;20035;-72
2022/05/13 10:14:03;;;;;;;10.43;4.90;;;;;;;27.94;32.64;99986.19;5117228;28;20042;-72
2022/05/13 10:16:43;;;;;;;6.32;4.05;;;;;;;27.91;34.06;99979.38;5117542;28;20080;-72
2022/05/13 10:19:52;;;;;;;11.05;4.22;;;;;;;27.80;34.23;99974.19;5117639;28;20218;-72
2022/05/13 10:22:42;;;;;;;8.55;4.22;;;;;;;27.94;35.51;99967.94;5054975;28;20335;-72
2022/05/13 10:25:16;;;;;;;21.02;4.78;;;;;;;27.80;32.40;99960.56;5095675;28;20043;-72
2022/05/13 10:27:57;;;;;;;8.23;4.18;;;;;;;27.66;34.81;99957.56;5116840;28;20372;-72
2022/05/13 10:30:48;;;;;;;9.00;4.15;;;;;;;27.69;34.24;99957.03;5115798;28;20047;-72
2022/05/13 10:33:25;;;;;;;5.35;3.75;;;;;;;27.63;33.36;99944.50;5117107;28;20038;-72
2022/05/13 10:36:14;;;;;;;7.47;3.88;;;;;;;27.60;33.31;99951.28;5117774;28;20036;-72
2022/05/13 10:38:45;;;;;;;8.55;3.80;;;;;;;27.18;33.83;99934.28;5071242;28;20299;-72
2022/05/13 10:41:14;;;;;;;8.82;3.83;;;;;;;27.46;33.36;99941.16;5117311;28;20553;-72
2022/05/13 10:43:46;;;;;;;6.93;3.60;;;;;;;27.52;34.50;99937.38;5104035;28;20090;-72
2022/05/13 10:46:48;;;;;;;7.07;3.60;;;;;;;27.61;33.53;99933.88;5117786;28;20300;-72
2022/05/13 10:49:14;;;;;;;10.48;3.90;;;;;;;27.76;33.04;99927.66;5098037;28;20082;-72
2022/05/13 10:52:05;;;;;;;3.72;2.92;;;;;;;27.69;33.09;99918.13;5117306;28;20042;-72
2022/05/13 10:54:54;;;;;;;10.48;3.70;;;;;;;27.70;32.31;99915.13;5105107;28;20069;-72
2022/05/13 10:57:19;;;;;;;10.50;3.35;;;;;;;27.63;31.98;99920.00;5116533;28;20087;-72
2022/05/13 10:59:53;;;;;;;8.60;3.38;;;;;;;27.69;31.64;99907.25;5118349;28;20072;-72
2022/05/13 11:02:25;;;;;;;6.38;3.25;;;;;;;27.57;30.72;99905.56;5099179;28;20057;-72
2022/05/13 11:05:12;;;;;;;5.55;3.05;;;;;;;27.96;33.11;99902.34;5116949;27;20084;-72
2022/05/13 11:08:23;;;;;;;3.83;2.90;;;;;;;27.83;29.91;99900.19;5117668;28;20044;-72
2022/05/13 11:11:23;;;;;;;9.80;3.65;;;;;;;27.71;31.12;99888.75;5107352;28;20171;-72
2022/05/13 11:14:00;;;;;;;10.75;3.28;;;;;;;27.86;30.77;99894.19;5116416;28;20112;-72
2022/05/13 11:16:56;;;;;;;10.45;3.05;;;;;;;27.66;30.41;99887.66;5117718;28;20746;-72
2022/05/13 11:19:32;;;;;;;6.20;2.88;;;;;;;27.77;30.84;99891.19;5115785;28;20030;-72
2022/05/13 11:22:12;;;;;;;7.25;3.42;;;;;;;27.79;32.57;99880.03;5115844;28;20213;-72
2022/05/13 11:28:28;;;;;;;7.00;3.42;;;;;;;28.00;31.17;99865.34;5115605;28;20066;-72
2022/05/13 11:31:27;;;;;;;9.93;3.58;;;;;;;27.79;31.44;99867.25;5115834;28;20039;-72
2022/05/13 11:34:27;;;;;;;7.90;3.42;;;;;;;27.81;31.43;99869.69;5114895;28;20046;-72
2022/05/13 11:37:05;;;;;;;13.07;3.63;;;;;;;28.07;32.28;99857.69;5116556;28;20034;-72
2022/05/13 11:40:02;;;;;;;7.75;3.17;;;;;;;27.93;30.56;99856.63;5116545;28;20263;-72
2022/05/13 11:45:55;;;;;;;4.68;2.67;;;;;;;27.80;28.73;99843.56;5114683;28;20344;-72
2022/05/13 11:48:36;;;;;;;6.85;2.80;;;;;;;27.94;28.41;99841.94;5115086;28;20035;-72
2022/05/13 11:51:06;;;;;;;7.20;2.88;;;;;;;27.85;28.36;99833.50;5116370;28;20043;-72
2022/05/13 11:54:10;;;;;;;8.18;3.00;;;;;;;28.05;29.55;99829.13;5116453;28;20043;-72
2022/05/13 11:56:38;;;;;;;15.00;3.28;;;;;;;28.08;28.26;99837.56;5051871;28;20049;-72
2022/05/13 11:59:11;;;;;;;4.35;3.00;;;;;;;27.91;28.17;99832.41;5104772;28;20286;-72
2022/05/13 12:04:14;;;;;;;6.93;2.97;;;;;;;28.06;28.33;99825.31;5116391;28;20411;-72
2022/05/13 12:07:21;;;;;;;7.45;2.90;;;;;;;28.15;28.72;99818.25;5115655;28;20448;-72